sensor_id;sensor_type;location;lat;lon;timestamp;temperature;humidity
6964;DHT22;3522;50.856;7.278;2023-02-16T00:01:29;3.60;99.90
6964;DHT22;3522;50.856;7.278;2023-02-16T00:03:56;3.60;99.90
6964;DHT22;3522;50.856;7.278;2023-02-16T00:06:23;3.70;99.90
6964;DHT22;3522;50.856;7.278;2023-02-16T00:08:50;3.70;99.90
6964;DHT22;3522;50.856;7.278;2023-02-16T00:11:20;3.60;99.90
6964;DHT22;3522;50.856;7.278;2023-02-16T00:14:06;3.60;99.90
6964;DHT22;3522;50.856;7.278;2023-02-16T00:16:33;3.60;99.90
6964;DHT22;3522;50.856;7.278;2023-02-16T00:18:59;3.50;99.90
6964;DHT22;3522;50.856;7.278;2023-02-16T00:21:26;3.50;99.90
6964;DHT22;3522;50.856;7.278;2023-02-16T00:23:52;3.50;99.90
6964;DHT22;3522;50.856;7.278;2023-02-16T00:26:21;3.50;99.90
6964;DHT22;3522;50.856;7.278;2023-02-16T00:28:49;3.50;99.90
6964;DHT22;3522;50.856;7.278;2023-02-16T00:31:17;3.40;99.90
6964;DHT22;3522;50.856;7.278;2023-02-16T00:33:44;3.40;99.90
6964;DHT22;3522;50.856;7.278;2023-02-16T00:36:10;3.40;99.90
6964;DHT22;3522;50.856;7.278;2023-02-16T00:38:37;3.40;99.90
6964;DHT22;3522;50.856;7.278;2023-02-16T00:41:04;3.40;99.90
6964;DHT22;3522;50.856;7.278;2023-02-16T00:43:52;3.40;99.90
6964;DHT22;3522;50.856;7.278;2023-02-16T00:46:20;3.30;99.90
6964;DHT22;3522;50.856;7.278;2023-02-16T00:48:47;3.30;99.90
6964;DHT22;3522;50.856;7.278;2023-02-16T00:51:14;3.30;99.90
6964;DHT22;3522;50.856;7.278;2023-02-16T00:53:40;3.30;99.90
6964;DHT22;3522;50.856;7.278;2023-02-16T00:56:07;3.30;99.90
6964;DHT22;3522;50.856;7.278;2023-02-16T00:58:34;3.30;99.90
6964;DHT22;3522;50.856;7.278;2023-02-16T01:01:05;3.20;99.90
6964;DHT22;3522;50.856;7.278;2023-02-16T01:03:33;3.20;99.90
6964;DHT22;3522;50.856;7.278;2023-02-16T01:05:59;3.20;99.90
6964;DHT22;3522;50.856;7.278;2023-02-16T01:08:40;3.20;99.90
6964;DHT22;3522;50.856;7.278;2023-02-16T01:11:24;3.20;99.90
6964;DHT22;3522;50.856;7.278;2023-02-16T01:13:52;3.20;99.90
6964;DHT22;3522;50.856;7.278;2023-02-16T01:16:21;3.20;99.90
6964;DHT22;3522;50.856;7.278;2023-02-16T01:18:48;3.10;99.90
6964;DHT22;3522;50.856;7.278;2023-02-16T01:21:15;3.20;99.90
6964;DHT22;3522;50.856;7.278;2023-02-16T01:23:42;3.10;99.90
6964;DHT22;3522;50.856;7.278;2023-02-16T01:26:10;3.10;99.90
6964;DHT22;3522;50.856;7.278;2023-02-16T01:28:37;3.10;99.90
6964;DHT22;3522;50.856;7.278;2023-02-16T01:31:04;3.10;99.90
6964;DHT22;3522;50.856;7.278;2023-02-16T01:33:32;3.20;99.90
6964;DHT22;3522;50.856;7.278;2023-02-16T01:35:59;3.10;99.90
6964;DHT22;3522;50.856;7.278;2023-02-16T01:38:26;3.20;99.90
6964;DHT22;3522;50.856;7.278;2023-02-16T01:40:58;3.20;99.90
6964;DHT22;3522;50.856;7.278;2023-02-16T01:43:27;3.20;99.90
6964;DHT22;3522;50.856;7.278;2023-02-16T01:45:56;3.20;99.90
6964;DHT22;3522;50.856;7.278;2023-02-16T01:48:25;3.20;99.90
6964;DHT22;3522;50.856;7.278;2023-02-16T01:50:55;3.20;99.90
6964;DHT22;3522;50.856;7.278;2023-02-16T01:53:25;3.10;99.90
6964;DHT22;3522;50.856;7.278;2023-02-16T01:55:54;3.10;99.90
6964;DHT22;3522;50.856;7.278;2023-02-16T01:58:26;3.10;99.90
6964;DHT22;3522;50.856;7.278;2023-02-16T02:03:40;3.00;99.90
6964;DHT22;3522;50.856;7.278;2023-02-16T02:06:26;3.00;99.90
6964;DHT22;3522;50.856;7.278;2023-02-16T02:08:57;3.00;99.90
6964;DHT22;3522;50.856;7.278;2023-02-16T02:11:26;3.00;99.90
6964;DHT22;3522;50.856;7.278;2023-02-16T02:13:56;3.00;99.90
6964;DHT22;3522;50.856;7.278;2023-02-16T02:16:24;3.10;99.90
6964;DHT22;3522;50.856;7.278;2023-02-16T02:18:51;3.10;99.90
6964;DHT22;3522;50.856;7.278;2023-02-16T02:21:27;3.10;99.90
6964;DHT22;3522;50.856;7.278;2023-02-16T02:24:22;3.10;99.90
6964;DHT22;3522;50.856;7.278;2023-02-16T02:27:07;3.00;99.90
6964;DHT22;3522;50.856;7.278;2023-02-16T02:32:17;3.10;99.90
6964;DHT22;3522;50.856;7.278;2023-02-16T02:34:49;3.00;99.90
6964;DHT22;3522;50.856;7.278;2023-02-16T02:37:20;3.00;99.90
6964;DHT22;3522;50.856;7.278;2023-02-16T02:39:50;3.00;99.90
6964;DHT22;3522;50.856;7.278;2023-02-16T02:42:23;2.90;99.90
6964;DHT22;3522;50.856;7.278;2023-02-16T02:44:51;2.90;99.90
6964;DHT22;3522;50.856;7.278;2023-02-16T02:47:20;2.90;99.90
6964;DHT22;3522;50.856;7.278;2023-02-16T02:49:49;2.80;99.90
6964;DHT22;3522;50.856;7.278;2023-02-16T02:52:16;2.80;99.90
6964;DHT22;3522;50.856;7.278;2023-02-16T02:54:43;2.80;99.90
6964;DHT22;3522;50.856;7.278;2023-02-16T02:57:38;2.80;99.90
6964;DHT22;3522;50.856;7.278;2023-02-16T03:00:24;2.80;99.90
6964;DHT22;3522;50.856;7.278;2023-02-16T03:03:10;2.80;99.90
6964;DHT22;3522;50.856;7.278;2023-02-16T03:05:38;2.80;99.90
6964;DHT22;3522;50.856;7.278;2023-02-16T03:08:08;2.70;99.90
6964;DHT22;3522;50.856;7.278;2023-02-16T03:10:39;2.70;99.90
6964;DHT22;3522;50.856;7.278;2023-02-16T03:13:27;2.70;99.90
6964;DHT22;3522;50.856;7.278;2023-02-16T03:15:55;2.70;99.90
6964;DHT22;3522;50.856;7.278;2023-02-16T03:18:22;2.70;99.90
6964;DHT22;3522;50.856;7.278;2023-02-16T03:21:08;2.60;99.90
6964;DHT22;3522;50.856;7.278;2023-02-16T03:23:54;2.60;99.90
6964;DHT22;3522;50.856;7.278;2023-02-16T03:26:38;2.60;99.90
6964;DHT22;3522;50.856;7.278;2023-02-16T03:29:24;2.60;99.90
6964;DHT22;3522;50.856;7.278;2023-02-16T03:31:51;2.50;99.90
6964;DHT22;3522;50.856;7.278;2023-02-16T03:34:19;2.50;99.90
6964;DHT22;3522;50.856;7.278;2023-02-16T03:36:48;2.40;99.90
6964;DHT22;3522;50.856;7.278;2023-02-16T03:39:15;2.40;99.90
6964;DHT22;3522;50.856;7.278;2023-02-16T03:41:42;2.40;99.90
6964;DHT22;3522;50.856;7.278;2023-02-16T03:44:10;2.40;99.90
6964;DHT22;3522;50.856;7.278;2023-02-16T03:46:38;2.40;99.90
6964;DHT22;3522;50.856;7.278;2023-02-16T03:49:05;2.30;99.90
6964;DHT22;3522;50.856;7.278;2023-02-16T03:51:31;2.30;99.90
6964;DHT22;3522;50.856;7.278;2023-02-16T03:53:58;2.30;99.90
6964;DHT22;3522;50.856;7.278;2023-02-16T03:56:24;2.30;99.90
6964;DHT22;3522;50.856;7.278;2023-02-16T03:58:51;2.30;99.90
6964;DHT22;3522;50.856;7.278;2023-02-16T04:01:17;2.30;99.90
6964;DHT22;3522;50.856;7.278;2023-02-16T04:03:45;2.20;99.90
6964;DHT22;3522;50.856;7.278;2023-02-16T04:06:12;2.20;99.90
6964;DHT22;3522;50.856;7.278;2023-02-16T04:08:38;2.10;99.90
6964;DHT22;3522;50.856;7.278;2023-02-16T04:11:05;2.10;99.90
6964;DHT22;3522;50.856;7.278;2023-02-16T04:13:52;2.10;99.90
6964;DHT22;3522;50.856;7.278;2023-02-16T04:16:18;2.10;99.90
6964;DHT22;3522;50.856;7.278;2023-02-16T04:18:46;2.20;99.90
6964;DHT22;3522;50.856;7.278;2023-02-16T04:21:12;2.10;99.90
6964;DHT22;3522;50.856;7.278;2023-02-16T04:23:39;2.10;99.90
6964;DHT22;3522;50.856;7.278;2023-02-16T04:26:05;2.10;99.90
6964;DHT22;3522;50.856;7.278;2023-02-16T04:28:32;2.00;99.90
6964;DHT22;3522;50.856;7.278;2023-02-16T04:30:58;2.00;99.90
6964;DHT22;3522;50.856;7.278;2023-02-16T04:33:25;2.00;99.90
6964;DHT22;3522;50.856;7.278;2023-02-16T04:35:53;2.00;99.90
6964;DHT22;3522;50.856;7.278;2023-02-16T04:38:19;2.00;99.90
6964;DHT22;3522;50.856;7.278;2023-02-16T04:40:46;2.00;99.90
6964;DHT22;3522;50.856;7.278;2023-02-16T04:43:12;2.10;99.90
6964;DHT22;3522;50.856;7.278;2023-02-16T04:45:39;2.00;99.90
6964;DHT22;3522;50.856;7.278;2023-02-16T04:48:05;2.00;99.90
6964;DHT22;3522;50.856;7.278;2023-02-16T04:50:32;2.00;99.90
6964;DHT22;3522;50.856;7.278;2023-02-16T04:53:00;2.00;99.90
6964;DHT22;3522;50.856;7.278;2023-02-16T04:55:26;2.00;99.90
6964;DHT22;3522;50.856;7.278;2023-02-16T04:57:54;2.00;99.90
6964;DHT22;3522;50.856;7.278;2023-02-16T05:00:20;2.00;99.90
6964;DHT22;3522;50.856;7.278;2023-02-16T05:02:47;2.00;99.90
6964;DHT22;3522;50.856;7.278;2023-02-16T05:05:13;2.00;99.90
6964;DHT22;3522;50.856;7.278;2023-02-16T05:07:40;1.90;99.90
6964;DHT22;3522;50.856;7.278;2023-02-16T05:10:08;1.90;99.90
6964;DHT22;3522;50.856;7.278;2023-02-16T05:12:35;1.90;99.90
6964;DHT22;3522;50.856;7.278;2023-02-16T05:15:19;1.90;99.90
6964;DHT22;3522;50.856;7.278;2023-02-16T05:17:45;1.90;99.90
6964;DHT22;3522;50.856;7.278;2023-02-16T05:20:12;1.90;99.90
6964;DHT22;3522;50.856;7.278;2023-02-16T05:22:39;1.90;99.90
6964;DHT22;3522;50.856;7.278;2023-02-16T05:25:09;1.90;99.90
6964;DHT22;3522;50.856;7.278;2023-02-16T05:27:35;1.90;99.90
6964;DHT22;3522;50.856;7.278;2023-02-16T05:30:02;1.90;99.90
6964;DHT22;3522;50.856;7.278;2023-02-16T05:32:29;1.90;99.90
6964;DHT22;3522;50.856;7.278;2023-02-16T05:34:55;1.90;99.90
6964;DHT22;3522;50.856;7.278;2023-02-16T05:37:22;1.80;99.90
6964;DHT22;3522;50.856;7.278;2023-02-16T05:39:48;1.90;99.90
6964;DHT22;3522;50.856;7.278;2023-02-16T05:42:18;1.80;99.90
6964;DHT22;3522;50.856;7.278;2023-02-16T05:44:44;1.80;99.90
6964;DHT22;3522;50.856;7.278;2023-02-16T05:47:12;1.80;99.90
6964;DHT22;3522;50.856;7.278;2023-02-16T05:49:38;1.80;99.90
6964;DHT22;3522;50.856;7.278;2023-02-16T05:52:05;1.80;99.90
6964;DHT22;3522;50.856;7.278;2023-02-16T05:54:31;1.80;99.90
6964;DHT22;3522;50.856;7.278;2023-02-16T05:56:58;1.80;99.90
6964;DHT22;3522;50.856;7.278;2023-02-16T05:59:26;1.70;99.90
6964;DHT22;3522;50.856;7.278;2023-02-16T06:01:52;1.70;99.90
6964;DHT22;3522;50.856;7.278;2023-02-16T06:04:19;1.70;99.90
6964;DHT22;3522;50.856;7.278;2023-02-16T06:06:46;1.70;99.90
6964;DHT22;3522;50.856;7.278;2023-02-16T06:09:12;1.70;99.90
6964;DHT22;3522;50.856;7.278;2023-02-16T06:11:39;1.70;99.90
6964;DHT22;3522;50.856;7.278;2023-02-16T06:14:07;1.70;99.90
6964;DHT22;3522;50.856;7.278;2023-02-16T06:16:35;1.70;99.90
6964;DHT22;3522;50.856;7.278;2023-02-16T06:19:02;1.60;99.90
6964;DHT22;3522;50.856;7.278;2023-02-16T06:21:29;1.60;99.90
6964;DHT22;3522;50.856;7.278;2023-02-16T06:23:55;1.60;99.90
6964;DHT22;3522;50.856;7.278;2023-02-16T06:26:22;1.60;99.90
6964;DHT22;3522;50.856;7.278;2023-02-16T06:28:49;1.60;99.90
6964;DHT22;3522;50.856;7.278;2023-02-16T06:31:16;1.60;99.90
6964;DHT22;3522;50.856;7.278;2023-02-16T06:33:44;1.60;99.90
6964;DHT22;3522;50.856;7.278;2023-02-16T06:36:10;1.60;99.90
6964;DHT22;3522;50.856;7.278;2023-02-16T06:38:37;1.60;99.90
6964;DHT22;3522;50.856;7.278;2023-02-16T06:41:04;1.60;99.90
6964;DHT22;3522;50.856;7.278;2023-02-16T06:43:30;1.70;99.90
6964;DHT22;3522;50.856;7.278;2023-02-16T06:45:57;1.60;99.90
6964;DHT22;3522;50.856;7.278;2023-02-16T06:48:23;1.70;99.90
6964;DHT22;3522;50.856;7.278;2023-02-16T06:50:51;1.70;99.90
6964;DHT22;3522;50.856;7.278;2023-02-16T06:53:18;1.70;99.90
6964;DHT22;3522;50.856;7.278;2023-02-16T06:55:45;1.70;99.90
6964;DHT22;3522;50.856;7.278;2023-02-16T06:58:12;1.70;99.90
6964;DHT22;3522;50.856;7.278;2023-02-16T07:00:38;1.70;99.90
6964;DHT22;3522;50.856;7.278;2023-02-16T07:03:05;1.80;99.90
6964;DHT22;3522;50.856;7.278;2023-02-16T07:05:31;1.80;99.90
6964;DHT22;3522;50.856;7.278;2023-02-16T07:07:59;1.80;99.90
6964;DHT22;3522;50.856;7.278;2023-02-16T07:10:26;1.90;99.90
6964;DHT22;3522;50.856;7.278;2023-02-16T07:12:52;1.90;99.90
6964;DHT22;3522;50.856;7.278;2023-02-16T07:15:19;1.90;99.90
6964;DHT22;3522;50.856;7.278;2023-02-16T07:17:45;1.90;99.90
6964;DHT22;3522;50.856;7.278;2023-02-16T07:20:12;2.00;99.90
6964;DHT22;3522;50.856;7.278;2023-02-16T07:22:38;2.00;99.90
6964;DHT22;3522;50.856;7.278;2023-02-16T07:25:07;2.10;99.90
6964;DHT22;3522;50.856;7.278;2023-02-16T07:27:39;2.10;99.90
6964;DHT22;3522;50.856;7.278;2023-02-16T07:30:06;2.20;99.90
6964;DHT22;3522;50.856;7.278;2023-02-16T07:32:35;2.40;99.90
6964;DHT22;3522;50.856;7.278;2023-02-16T07:35:01;2.50;99.90
6964;DHT22;3522;50.856;7.278;2023-02-16T07:37:28;2.60;99.90
6964;DHT22;3522;50.856;7.278;2023-02-16T07:39:54;2.80;99.90
6964;DHT22;3522;50.856;7.278;2023-02-16T07:42:22;2.90;99.90
6964;DHT22;3522;50.856;7.278;2023-02-16T07:44:49;3.00;99.90
6964;DHT22;3522;50.856;7.278;2023-02-16T07:47:15;3.10;99.90
6964;DHT22;3522;50.856;7.278;2023-02-16T07:49:42;3.20;99.90
6964;DHT22;3522;50.856;7.278;2023-02-16T07:52:08;3.30;99.90
6964;DHT22;3522;50.856;7.278;2023-02-16T07:54:35;3.30;99.90
6964;DHT22;3522;50.856;7.278;2023-02-16T07:57:02;3.30;99.90
6964;DHT22;3522;50.856;7.278;2023-02-16T07:59:30;3.30;99.90
6964;DHT22;3522;50.856;7.278;2023-02-16T08:01:56;3.40;99.90
6964;DHT22;3522;50.856;7.278;2023-02-16T08:04:23;3.40;99.90
6964;DHT22;3522;50.856;7.278;2023-02-16T08:06:49;3.40;99.90
6964;DHT22;3522;50.856;7.278;2023-02-16T08:09:16;3.40;99.90
6964;DHT22;3522;50.856;7.278;2023-02-16T08:11:43;3.40;99.90
6964;DHT22;3522;50.856;7.278;2023-02-16T08:14:09;3.40;99.90
6964;DHT22;3522;50.856;7.278;2023-02-16T08:16:37;3.40;99.90
6964;DHT22;3522;50.856;7.278;2023-02-16T08:19:04;3.40;99.90
6964;DHT22;3522;50.856;7.278;2023-02-16T08:21:31;3.50;99.90
6964;DHT22;3522;50.856;7.278;2023-02-16T08:23:59;3.60;99.90
6964;DHT22;3522;50.856;7.278;2023-02-16T08:26:26;3.70;99.90
6964;DHT22;3522;50.856;7.278;2023-02-16T08:28:55;3.80;99.90
6964;DHT22;3522;50.856;7.278;2023-02-16T08:31:23;3.90;99.90
6964;DHT22;3522;50.856;7.278;2023-02-16T08:33:52;4.00;99.90
6964;DHT22;3522;50.856;7.278;2023-02-16T08:36:19;4.10;99.90
6964;DHT22;3522;50.856;7.278;2023-02-16T08:38:47;4.20;99.90
6964;DHT22;3522;50.856;7.278;2023-02-16T08:41:15;4.40;99.90
6964;DHT22;3522;50.856;7.278;2023-02-16T08:43:44;4.40;99.90
6964;DHT22;3522;50.856;7.278;2023-02-16T08:46:11;4.40;99.90
6964;DHT22;3522;50.856;7.278;2023-02-16T08:48:38;4.40;99.90
6964;DHT22;3522;50.856;7.278;2023-02-16T08:51:06;4.50;99.90
6964;DHT22;3522;50.856;7.278;2023-02-16T08:53:37;4.60;99.90
6964;DHT22;3522;50.856;7.278;2023-02-16T08:56:03;4.60;99.90
6964;DHT22;3522;50.856;7.278;2023-02-16T08:58:31;4.70;99.90
6964;DHT22;3522;50.856;7.278;2023-02-16T09:00:58;4.80;99.90
6964;DHT22;3522;50.856;7.278;2023-02-16T09:03:32;4.80;99.90
6964;DHT22;3522;50.856;7.278;2023-02-16T09:06:00;4.80;99.90
6964;DHT22;3522;50.856;7.278;2023-02-16T09:08:29;4.80;99.90
6964;DHT22;3522;50.856;7.278;2023-02-16T09:10:59;4.80;99.90
6964;DHT22;3522;50.856;7.278;2023-02-16T09:13:26;4.80;99.90
6964;DHT22;3522;50.856;7.278;2023-02-16T09:15:52;4.90;99.90
6964;DHT22;3522;50.856;7.278;2023-02-16T09:18:22;4.90;99.90
6964;DHT22;3522;50.856;7.278;2023-02-16T09:20:50;5.00;99.90
6964;DHT22;3522;50.856;7.278;2023-02-16T09:23:17;5.00;99.90
6964;DHT22;3522;50.856;7.278;2023-02-16T09:25:46;5.10;99.90
6964;DHT22;3522;50.856;7.278;2023-02-16T09:28:12;5.20;99.90
6964;DHT22;3522;50.856;7.278;2023-02-16T09:30:40;5.30;99.90
6964;DHT22;3522;50.856;7.278;2023-02-16T09:33:06;5.40;99.90
6964;DHT22;3522;50.856;7.278;2023-02-16T09:35:33;5.40;99.90
6964;DHT22;3522;50.856;7.278;2023-02-16T09:37:59;5.50;99.90
6964;DHT22;3522;50.856;7.278;2023-02-16T09:40:26;5.60;99.90
6964;DHT22;3522;50.856;7.278;2023-02-16T09:42:57;5.70;99.90
6964;DHT22;3522;50.856;7.278;2023-02-16T09:45:27;5.70;99.90
6964;DHT22;3522;50.856;7.278;2023-02-16T09:47:54;5.70;99.90
6964;DHT22;3522;50.856;7.278;2023-02-16T09:50:23;5.80;99.90
6964;DHT22;3522;50.856;7.278;2023-02-16T09:52:52;5.90;99.90
6964;DHT22;3522;50.856;7.278;2023-02-16T09:55:22;5.90;99.90
6964;DHT22;3522;50.856;7.278;2023-02-16T09:57:53;6.10;99.90
6964;DHT22;3522;50.856;7.278;2023-02-16T10:00:24;6.30;99.90
6964;DHT22;3522;50.856;7.278;2023-02-16T10:02:52;6.70;99.90
6964;DHT22;3522;50.856;7.278;2023-02-16T10:05:26;7.00;99.90
6964;DHT22;3522;50.856;7.278;2023-02-16T10:07:56;7.40;99.90
6964;DHT22;3522;50.856;7.278;2023-02-16T10:10:25;7.70;99.90
6964;DHT22;3522;50.856;7.278;2023-02-16T10:12:57;8.10;99.90
6964;DHT22;3522;50.856;7.278;2023-02-16T10:15:27;8.50;99.90
6964;DHT22;3522;50.856;7.278;2023-02-16T10:17:55;8.90;99.90
6964;DHT22;3522;50.856;7.278;2023-02-16T10:20:25;9.10;99.90
6964;DHT22;3522;50.856;7.278;2023-02-16T10:22:53;9.20;99.90
6964;DHT22;3522;50.856;7.278;2023-02-16T10:25:22;9.40;99.90
6964;DHT22;3522;50.856;7.278;2023-02-16T10:27:56;9.60;99.90
6964;DHT22;3522;50.856;7.278;2023-02-16T10:30:23;9.90;99.90
6964;DHT22;3522;50.856;7.278;2023-02-16T10:32:55;10.10;99.90
6964;DHT22;3522;50.856;7.278;2023-02-16T10:35:24;10.10;99.90
6964;DHT22;3522;50.856;7.278;2023-02-16T10:37:55;10.00;99.90
6964;DHT22;3522;50.856;7.278;2023-02-16T10:40:26;10.10;99.90
6964;DHT22;3522;50.856;7.278;2023-02-16T10:42:59;10.10;99.90
6964;DHT22;3522;50.856;7.278;2023-02-16T10:45:32;10.00;99.90
6964;DHT22;3522;50.856;7.278;2023-02-16T10:48:02;9.90;99.90
6964;DHT22;3522;50.856;7.278;2023-02-16T10:50:30;9.90;99.90
6964;DHT22;3522;50.856;7.278;2023-02-16T10:52:58;9.90;99.90
6964;DHT22;3522;50.856;7.278;2023-02-16T10:55:26;9.90;99.90
6964;DHT22;3522;50.856;7.278;2023-02-16T10:57:53;9.90;99.90
6964;DHT22;3522;50.856;7.278;2023-02-16T11:00:22;9.90;99.90
6964;DHT22;3522;50.856;7.278;2023-02-16T11:02:50;9.80;99.90
6964;DHT22;3522;50.856;7.278;2023-02-16T11:05:28;9.80;99.90
6964;DHT22;3522;50.856;7.278;2023-02-16T11:07:56;9.80;99.90
6964;DHT22;3522;50.856;7.278;2023-02-16T11:10:33;9.80;99.90
6964;DHT22;3522;50.856;7.278;2023-02-16T11:12:59;9.90;99.90
6964;DHT22;3522;50.856;7.278;2023-02-16T11:15:26;9.90;99.90
6964;DHT22;3522;50.856;7.278;2023-02-16T11:17:54;10.00;99.90
6964;DHT22;3522;50.856;7.278;2023-02-16T11:20:26;10.00;99.90
6964;DHT22;3522;50.856;7.278;2023-02-16T11:23:00;10.10;99.90
6964;DHT22;3522;50.856;7.278;2023-02-16T11:25:37;10.20;99.90
6964;DHT22;3522;50.856;7.278;2023-02-16T11:28:04;10.30;99.90
6964;DHT22;3522;50.856;7.278;2023-02-16T11:30:31;10.50;99.90
6964;DHT22;3522;50.856;7.278;2023-02-16T11:32:59;10.60;99.90
6964;DHT22;3522;50.856;7.278;2023-02-16T11:35:28;10.70;99.90
6964;DHT22;3522;50.856;7.278;2023-02-16T11:37:55;10.70;99.90
6964;DHT22;3522;50.856;7.278;2023-02-16T11:40:24;10.70;99.90
6964;DHT22;3522;50.856;7.278;2023-02-16T11:42:52;10.80;99.90
6964;DHT22;3522;50.856;7.278;2023-02-16T11:45:21;10.50;99.90
6964;DHT22;3522;50.856;7.278;2023-02-16T11:47:51;10.50;99.90
6964;DHT22;3522;50.856;7.278;2023-02-16T11:50:19;10.30;99.90
6964;DHT22;3522;50.856;7.278;2023-02-16T11:52:46;10.30;99.90
6964;DHT22;3522;50.856;7.278;2023-02-16T11:55:22;10.40;99.90
6964;DHT22;3522;50.856;7.278;2023-02-16T11:57:52;10.30;99.90
6964;DHT22;3522;50.856;7.278;2023-02-16T12:00:21;10.40;99.90
6964;DHT22;3522;50.856;7.278;2023-02-16T12:05:35;10.40;99.90
6964;DHT22;3522;50.856;7.278;2023-02-16T12:10:53;10.70;99.90
6964;DHT22;3522;50.856;7.278;2023-02-16T12:13:25;10.80;99.90
6964;DHT22;3522;50.856;7.278;2023-02-16T12:15:55;10.80;99.90
6964;DHT22;3522;50.856;7.278;2023-02-16T12:18:26;10.80;99.90
6964;DHT22;3522;50.856;7.278;2023-02-16T12:20:57;10.80;99.90
6964;DHT22;3522;50.856;7.278;2023-02-16T12:23:32;10.70;99.90
6964;DHT22;3522;50.856;7.278;2023-02-16T12:26:15;10.60;99.90
6964;DHT22;3522;50.856;7.278;2023-02-16T12:28:49;10.50;99.90
6964;DHT22;3522;50.856;7.278;2023-02-16T12:31:22;10.40;99.90
6964;DHT22;3522;50.856;7.278;2023-02-16T12:33:55;10.40;99.90
6964;DHT22;3522;50.856;7.278;2023-02-16T12:36:30;10.40;99.90
6964;DHT22;3522;50.856;7.278;2023-02-16T12:39:01;10.30;99.90
6964;DHT22;3522;50.856;7.278;2023-02-16T12:41:31;10.20;99.90
6964;DHT22;3522;50.856;7.278;2023-02-16T12:44:02;10.10;99.90
6964;DHT22;3522;50.856;7.278;2023-02-16T12:46:31;10.10;99.90
6964;DHT22;3522;50.856;7.278;2023-02-16T12:49:01;10.00;99.90
6964;DHT22;3522;50.856;7.278;2023-02-16T12:51:32;10.00;99.90
6964;DHT22;3522;50.856;7.278;2023-02-16T12:54:01;10.00;99.90
6964;DHT22;3522;50.856;7.278;2023-02-16T12:56:35;10.10;99.90
6964;DHT22;3522;50.856;7.278;2023-02-16T12:59:07;10.10;99.90
6964;DHT22;3522;50.856;7.278;2023-02-16T13:01:39;10.10;99.90
6964;DHT22;3522;50.856;7.278;2023-02-16T13:04:12;10.10;99.90
6964;DHT22;3522;50.856;7.278;2023-02-16T13:06:42;10.10;99.90
6964;DHT22;3522;50.856;7.278;2023-02-16T13:09:13;10.20;99.90
6964;DHT22;3522;50.856;7.278;2023-02-16T13:11:45;10.30;99.90
6964;DHT22;3522;50.856;7.278;2023-02-16T13:14:16;10.30;99.90
6964;DHT22;3522;50.856;7.278;2023-02-16T13:16:44;10.30;99.90
6964;DHT22;3522;50.856;7.278;2023-02-16T13:19:12;10.30;99.90
6964;DHT22;3522;50.856;7.278;2023-02-16T13:21:46;10.40;99.90
6964;DHT22;3522;50.856;7.278;2023-02-16T13:24:17;10.40;99.90
6964;DHT22;3522;50.856;7.278;2023-02-16T13:26:53;10.40;99.90
6964;DHT22;3522;50.856;7.278;2023-02-16T13:32:20;10.40;99.90
6964;DHT22;3522;50.856;7.278;2023-02-16T13:34:53;10.30;99.90
6964;DHT22;3522;50.856;7.278;2023-02-16T13:37:28;10.40;99.90
6964;DHT22;3522;50.856;7.278;2023-02-16T13:40:03;10.40;99.90
6964;DHT22;3522;50.856;7.278;2023-02-16T13:42:44;10.40;99.90
6964;DHT22;3522;50.856;7.278;2023-02-16T13:45:17;10.40;99.90
6964;DHT22;3522;50.856;7.278;2023-02-16T13:47:46;10.40;99.90
6964;DHT22;3522;50.856;7.278;2023-02-16T13:50:24;10.40;99.90
6964;DHT22;3522;50.856;7.278;2023-02-16T13:52:52;10.30;99.90
6964;DHT22;3522;50.856;7.278;2023-02-16T13:55:21;10.20;99.90
6964;DHT22;3522;50.856;7.278;2023-02-16T13:58:01;10.20;99.90
6964;DHT22;3522;50.856;7.278;2023-02-16T14:00:30;10.10;99.90
6964;DHT22;3522;50.856;7.278;2023-02-16T14:02:59;10.00;99.90
6964;DHT22;3522;50.856;7.278;2023-02-16T14:05:28;10.00;99.90
6964;DHT22;3522;50.856;7.278;2023-02-16T14:08:12;9.90;99.90
6964;DHT22;3522;50.856;7.278;2023-02-16T14:10:56;10.00;99.90
6964;DHT22;3522;50.856;7.278;2023-02-16T14:13:25;10.10;99.90
6964;DHT22;3522;50.856;7.278;2023-02-16T14:15:53;10.10;99.90
6964;DHT22;3522;50.856;7.278;2023-02-16T14:18:25;10.10;99.90
6964;DHT22;3522;50.856;7.278;2023-02-16T14:20:58;10.20;99.90
6964;DHT22;3522;50.856;7.278;2023-02-16T14:23:26;10.20;99.90
6964;DHT22;3522;50.856;7.278;2023-02-16T14:25:59;10.20;99.90
6964;DHT22;3522;50.856;7.278;2023-02-16T14:31:12;10.20;99.90
6964;DHT22;3522;50.856;7.278;2023-02-16T14:33:42;10.20;99.90
6964;DHT22;3522;50.856;7.278;2023-02-16T14:36:13;10.30;99.90
6964;DHT22;3522;50.856;7.278;2023-02-16T14:38:42;10.40;99.90
6964;DHT22;3522;50.856;7.278;2023-02-16T14:41:11;10.40;99.90
6964;DHT22;3522;50.856;7.278;2023-02-16T14:43:41;10.40;99.90
6964;DHT22;3522;50.856;7.278;2023-02-16T14:46:20;10.40;99.90
6964;DHT22;3522;50.856;7.278;2023-02-16T14:51:46;10.30;99.90
6964;DHT22;3522;50.856;7.278;2023-02-16T14:57:01;10.20;99.90
6964;DHT22;3522;50.856;7.278;2023-02-16T14:59:31;10.20;99.90
6964;DHT22;3522;50.856;7.278;2023-02-16T15:02:00;10.30;99.90
6964;DHT22;3522;50.856;7.278;2023-02-16T15:04:46;10.30;99.90
6964;DHT22;3522;50.856;7.278;2023-02-16T15:07:16;10.30;99.90
6964;DHT22;3522;50.856;7.278;2023-02-16T15:09:43;10.20;99.90
6964;DHT22;3522;50.856;7.278;2023-02-16T15:12:12;10.20;99.90
6964;DHT22;3522;50.856;7.278;2023-02-16T15:14:50;10.20;99.90
6964;DHT22;3522;50.856;7.278;2023-02-16T15:17:23;10.30;99.90
6964;DHT22;3522;50.856;7.278;2023-02-16T15:19:51;10.30;99.90
6964;DHT22;3522;50.856;7.278;2023-02-16T15:22:20;10.40;99.90
6964;DHT22;3522;50.856;7.278;2023-02-16T15:24:53;10.50;99.90
6964;DHT22;3522;50.856;7.278;2023-02-16T15:27:21;10.50;99.90
6964;DHT22;3522;50.856;7.278;2023-02-16T15:30:00;10.50;99.90
6964;DHT22;3522;50.856;7.278;2023-02-16T15:32:27;10.50;99.90
6964;DHT22;3522;50.856;7.278;2023-02-16T15:34:54;10.60;99.90
6964;DHT22;3522;50.856;7.278;2023-02-16T15:37:23;10.60;99.90
6964;DHT22;3522;50.856;7.278;2023-02-16T15:39:50;10.60;99.90
6964;DHT22;3522;50.856;7.278;2023-02-16T15:42:18;10.60;99.90
6964;DHT22;3522;50.856;7.278;2023-02-16T15:44:45;10.50;99.90
6964;DHT22;3522;50.856;7.278;2023-02-16T15:47:13;10.50;99.90
6964;DHT22;3522;50.856;7.278;2023-02-16T15:49:41;10.50;99.90
6964;DHT22;3522;50.856;7.278;2023-02-16T15:52:11;10.50;99.90
6964;DHT22;3522;50.856;7.278;2023-02-16T15:54:39;10.50;99.90
6964;DHT22;3522;50.856;7.278;2023-02-16T15:57:10;10.40;99.90
6964;DHT22;3522;50.856;7.278;2023-02-16T15:59:42;10.30;99.90
6964;DHT22;3522;50.856;7.278;2023-02-16T16:02:11;10.20;99.90
6964;DHT22;3522;50.856;7.278;2023-02-16T16:04:39;10.10;99.90
6964;DHT22;3522;50.856;7.278;2023-02-16T16:07:06;10.10;99.90
6964;DHT22;3522;50.856;7.278;2023-02-16T16:09:34;10.00;99.90
6964;DHT22;3522;50.856;7.278;2023-02-16T16:12:03;10.00;99.90
6964;DHT22;3522;50.856;7.278;2023-02-16T16:14:31;10.00;99.90
6964;DHT22;3522;50.856;7.278;2023-02-16T16:16:58;10.00;99.90
6964;DHT22;3522;50.856;7.278;2023-02-16T16:19:30;10.00;99.90
6964;DHT22;3522;50.856;7.278;2023-02-16T16:21:57;10.00;99.90
6964;DHT22;3522;50.856;7.278;2023-02-16T16:24:27;10.00;99.90
6964;DHT22;3522;50.856;7.278;2023-02-16T16:26:59;9.90;99.90
6964;DHT22;3522;50.856;7.278;2023-02-16T16:29:32;9.90;99.90
6964;DHT22;3522;50.856;7.278;2023-02-16T16:31:59;9.80;99.90
6964;DHT22;3522;50.856;7.278;2023-02-16T16:34:30;9.80;99.90
6964;DHT22;3522;50.856;7.278;2023-02-16T16:36:57;9.70;99.90
6964;DHT22;3522;50.856;7.278;2023-02-16T16:39:27;9.60;99.90
6964;DHT22;3522;50.856;7.278;2023-02-16T16:42:06;9.50;99.90
6964;DHT22;3522;50.856;7.278;2023-02-16T16:44:35;9.40;99.90
6964;DHT22;3522;50.856;7.278;2023-02-16T16:47:19;9.30;99.90
6964;DHT22;3522;50.856;7.278;2023-02-16T16:49:48;9.10;99.90